Potomac, IL

7:10 PM CST on February 09, 2016 (GMT -0600)
APRSWXNET | | Change Station
CLOSE
Current Station
Personal Weather Station
Location: Armstrong, IL
Elevation: 731 ft
Nearby Weather Stations

Elev 731 ft 40.26 °N, 87.88 °W | Updated 19 days ago

Snow
Snow
16 °F
Feels Like -0 °F
N
17
Wind Variable Wind from WNW
Gusts 23 mph

Today
High -- | Low -- °F
--% Chance of Precip.
Yesterday
High -- | Low -- °F
Precip. -- in
Pressure 29.98 in
Visibility 3.0 miles
Clouds Mostly Cloudy 1300 ft
Mostly Cloudy 2200 ft
Overcast 4400 ft
Windchill -0 °F
Dew Point 9 °F
Humidity 71%
Rainfall in
Snow Depth Not available.
6:52 AM 5:19 PM
Waxing Crescent, 3% visible
METAR KTIP 100055Z AUTO 29016G23KT 3SM -SN BKN013 BKN022 OVC044 M07/M10 A2998 RMK AO2 T10751097
Pressure 29.98 in
Visibility 3.0 miles
Clouds Mostly Cloudy 1300 ft
Mostly Cloudy 2200 ft
Overcast 4400 ft
Windchill -0 °F
Dew Point 9 °F
Humidity 71%
Rainfall in
Snow Depth Not available.
6:52 AM 5:19 PM
Waxing Crescent, 3% visible
METAR KTIP 100055Z AUTO 29016G23KT 3SM -SN BKN013 BKN022 OVC044 M07/M10 A2998 RMK AO2 T10751097

10-Day Weather Forecast

Almanac

Astronomy

Feb. 09, 2016 Rise Set
Actual Time
Civil Twilight
Nautical Twilight
Astronomical Twilight
Moon
Length of Visible Light
Length of Day
Tomorrow will be .
, % of the Moon is Illuminated

Today's Extremes

State Highs State Lows

Community

WunderPhotos

Upload Photos

1,891,752 photos uploaded!

WunderBlog® & News

Nearby

Air Quality

  Air Quality AQ Index Pollutant
Not available.

Snow Depth

Station Depth Elevation

Earthquake Activity

City Distance Mag. Time & Date
Minimum magnitude displayed is 2.5.

Coastal Water Temperatures

Place Temperature

Stations

Nearby Weather Stations

Station Location Temp. Windchill Dew Point Humidity Wind Precip. Elev Updated Type
                   

Watches & Warnings

There are currently no watches in effect.